sensor_id;sensor_type;location;lat;lon;timestamp;pressure;altitude;pressure_sealevel;temperature;humidity
39739;BME280;25422;48.286;8.484;2023-05-15T00:00:47;93769.88;;;5.16;100.00
39739;BME280;25422;48.286;8.484;2023-05-15T00:03:12;93766.31;;;5.17;100.00
39739;BME280;25422;48.286;8.484;2023-05-15T00:05:38;93765.38;;;5.18;100.00
39739;BME280;25422;48.286;8.484;2023-05-15T00:08:04;93767.56;;;5.13;100.00
39739;BME280;25422;48.286;8.484;2023-05-15T00:10:29;93774.53;;;5.13;100.00
39739;BME280;25422;48.286;8.484;2023-05-15T00:12:55;93768.00;;;5.09;100.00
39739;BME280;25422;48.286;8.484;2023-05-15T00:15:20;93763.94;;;5.06;100.00
39739;BME280;25422;48.286;8.484;2023-05-15T00:17:45;93764.97;;;5.13;100.00
39739;BME280;25422;48.286;8.484;2023-05-15T00:20:11;93758.22;;;5.20;100.00
39739;BME280;25422;48.286;8.484;2023-05-15T00:22:37;93759.41;;;5.26;100.00
39739;BME280;25422;48.286;8.484;2023-05-15T00:25:02;93758.47;;;5.27;100.00
39739;BME280;25422;48.286;8.484;2023-05-15T00:27:28;93743.06;;;5.26;100.00
39739;BME280;25422;48.286;8.484;2023-05-15T00:29:54;93742.09;;;5.27;100.00
39739;BME280;25422;48.286;8.484;2023-05-15T00:32:19;93742.31;;;5.33;100.00
39739;BME280;25422;48.286;8.484;2023-05-15T00:34:44;93757.88;;;5.33;100.00
39739;BME280;25422;48.286;8.484;2023-05-15T00:37:10;93755.00;;;5.36;100.00
39739;BME280;25422;48.286;8.484;2023-05-15T00:39:37;93753.03;;;5.38;100.00
39739;BME280;25422;48.286;8.484;2023-05-15T00:42:03;93747.59;;;5.42;100.00
39739;BME280;25422;48.286;8.484;2023-05-15T00:44:33;93755.38;;;5.42;100.00
39739;BME280;25422;48.286;8.484;2023-05-15T00:47:00;93753.56;;;5.42;100.00
39739;BME280;25422;48.286;8.484;2023-05-15T00:49:28;93747.81;;;5.48;100.00
39739;BME280;25422;48.286;8.484;2023-05-15T00:51:57;93750.75;;;5.53;100.00
39739;BME280;25422;48.286;8.484;2023-05-15T00:54:26;93745.28;;;5.56;100.00
39739;BME280;25422;48.286;8.484;2023-05-15T00:56:55;93753.44;;;5.62;100.00
39739;BME280;25422;48.286;8.484;2023-05-15T00:59:27;93756.38;;;5.67;100.00
39739;BME280;25422;48.286;8.484;2023-05-15T01:01:53;93747.84;;;5.74;100.00
39739;BME280;25422;48.286;8.484;2023-05-15T01:04:19;93732.28;;;5.74;100.00
39739;BME280;25422;48.286;8.484;2023-05-15T01:06:45;93724.84;;;5.80;100.00
39739;BME280;25422;48.286;8.484;2023-05-15T01:09:11;93737.94;;;5.96;100.00
39739;BME280;25422;48.286;8.484;2023-05-15T01:11:38;93737.47;;;6.19;100.00
39739;BME280;25422;48.286;8.484;2023-05-15T01:14:07;93741.88;;;6.53;100.00
39739;BME280;25422;48.286;8.484;2023-05-15T01:16:34;93745.00;;;6.65;100.00
39739;BME280;25422;48.286;8.484;2023-05-15T01:19:01;93743.06;;;6.67;100.00
39739;BME280;25422;48.286;8.484;2023-05-15T01:27:12;93737.63;;;6.86;100.00
39739;BME280;25422;48.286;8.484;2023-05-15T01:35:53;93726.91;;;6.98;100.00
39739;BME280;25422;48.286;8.484;2023-05-15T01:38:49;93742.38;;;6.99;100.00
39739;BME280;25422;48.286;8.484;2023-05-15T01:44:27;93734.91;;;7.04;100.00
39739;BME280;25422;48.286;8.484;2023-05-15T01:46:54;93737.50;;;7.04;100.00
39739;BME280;25422;48.286;8.484;2023-05-15T01:49:24;93736.53;;;7.05;100.00
39739;BME280;25422;48.286;8.484;2023-05-15T01:51:55;93742.38;;;7.07;100.00
39739;BME280;25422;48.286;8.484;2023-05-15T01:54:21;93734.25;;;7.11;100.00
39739;BME280;25422;48.286;8.484;2023-05-15T01:56:48;93740.59;;;7.08;100.00
39739;BME280;25422;48.286;8.484;2023-05-15T01:59:14;93740.94;;;7.13;100.00
39739;BME280;25422;48.286;8.484;2023-05-15T02:01:40;93735.25;;;7.18;100.00
39739;BME280;25422;48.286;8.484;2023-05-15T02:04:07;93739.97;;;7.22;100.00
39739;BME280;25422;48.286;8.484;2023-05-15T02:06:34;93735.75;;;7.21;100.00
39739;BME280;25422;48.286;8.484;2023-05-15T02:09:01;93732.66;;;7.18;100.00
39739;BME280;25422;48.286;8.484;2023-05-15T02:11:27;93724.84;;;7.18;100.00
39739;BME280;25422;48.286;8.484;2023-05-15T02:13:55;93721.44;;;7.17;100.00
39739;BME280;25422;48.286;8.484;2023-05-15T02:16:21;93721.59;;;7.16;100.00
39739;BME280;25422;48.286;8.484;2023-05-15T02:18:47;93724.34;;;7.14;100.00
39739;BME280;25422;48.286;8.484;2023-05-15T02:21:14;93723.22;;;7.17;100.00
39739;BME280;25422;48.286;8.484;2023-05-15T02:23:40;93728.44;;;7.17;100.00
39739;BME280;25422;48.286;8.484;2023-05-15T02:26:32;93730.06;;;7.18;100.00
39739;BME280;25422;48.286;8.484;2023-05-15T02:29:09;93720.63;;;7.17;100.00
39739;BME280;25422;48.286;8.484;2023-05-15T02:34:27;93723.38;;;7.15;100.00
39739;BME280;25422;48.286;8.484;2023-05-15T02:36:59;93716.22;;;7.17;100.00
39739;BME280;25422;48.286;8.484;2023-05-15T02:39:26;93719.66;;;7.18;100.00
39739;BME280;25422;48.286;8.484;2023-05-15T02:41:52;93720.63;;;7.17;100.00
39739;BME280;25422;48.286;8.484;2023-05-15T02:44:18;93719.94;;;7.15;100.00
39739;BME280;25422;48.286;8.484;2023-05-15T02:46:46;93713.28;;;7.12;100.00
39739;BME280;25422;48.286;8.484;2023-05-15T02:49:12;93712.63;;;7.10;100.00
39739;BME280;25422;48.286;8.484;2023-05-15T02:51:38;93713.44;;;7.11;100.00
39739;BME280;25422;48.286;8.484;2023-05-15T02:54:03;93713.78;;;7.07;100.00
39739;BME280;25422;48.286;8.484;2023-05-15T02:56:29;93720.94;;;7.05;100.00
39739;BME280;25422;48.286;8.484;2023-05-15T02:58:55;93717.66;;;7.03;100.00
39739;BME280;25422;48.286;8.484;2023-05-15T03:01:20;93712.63;;;7.02;100.00
39739;BME280;25422;48.286;8.484;2023-05-15T03:03:46;93712.63;;;7.02;100.00
39739;BME280;25422;48.286;8.484;2023-05-15T03:06:11;93718.00;;;7.00;100.00
39739;BME280;25422;48.286;8.484;2023-05-15T03:08:37;93707.75;;;6.99;100.00
39739;BME280;25422;48.286;8.484;2023-05-15T03:11:02;93714.88;;;6.97;100.00
39739;BME280;25422;48.286;8.484;2023-05-15T03:13:28;93719.56;;;6.93;100.00
39739;BME280;25422;48.286;8.484;2023-05-15T03:15:53;93710.16;;;6.92;100.00
39739;BME280;25422;48.286;8.484;2023-05-15T03:18:19;93705.13;;;6.90;100.00
39739;BME280;25422;48.286;8.484;2023-05-15T03:20:46;93712.94;;;6.90;100.00
39739;BME280;25422;48.286;8.484;2023-05-15T03:23:12;93714.69;;;6.90;100.00
39739;BME280;25422;48.286;8.484;2023-05-15T03:25:38;93719.91;;;6.90;100.00
39739;BME280;25422;48.286;8.484;2023-05-15T03:28:03;93706.56;;;6.93;100.00
39739;BME280;25422;48.286;8.484;2023-05-15T03:30:28;93710.16;;;6.92;100.00
39739;BME280;25422;48.286;8.484;2023-05-15T03:32:54;93707.25;;;6.95;100.00
39739;BME280;25422;48.286;8.484;2023-05-15T03:35:21;93705.94;;;6.91;100.00
39739;BME280;25422;48.286;8.484;2023-05-15T03:37:47;93712.09;;;6.90;100.00
39739;BME280;25422;48.286;8.484;2023-05-15T03:40:12;93721.53;;;6.91;100.00
39739;BME280;25422;48.286;8.484;2023-05-15T03:42:38;93709.50;;;6.98;100.00
39739;BME280;25422;48.286;8.484;2023-05-15T03:45:03;93706.72;;;6.91;100.00
39739;BME280;25422;48.286;8.484;2023-05-15T03:47:29;93713.91;;;6.98;100.00
39739;BME280;25422;48.286;8.484;2023-05-15T03:49:54;93717.81;;;6.94;100.00
39739;BME280;25422;48.286;8.484;2023-05-15T03:52:20;93720.06;;;6.88;100.00
39739;BME280;25422;48.286;8.484;2023-05-15T03:54:46;93719.25;;;6.88;100.00
39739;BME280;25422;48.286;8.484;2023-05-15T03:57:12;93717.31;;;6.90;100.00
39739;BME280;25422;48.286;8.484;2023-05-15T03:59:37;93722.16;;;6.85;100.00
39739;BME280;25422;48.286;8.484;2023-05-15T04:02:02;93723.44;;;6.81;100.00
39739;BME280;25422;48.286;8.484;2023-05-15T04:04:28;93725.41;;;6.79;100.00
39739;BME280;25422;48.286;8.484;2023-05-15T04:06:53;93727.16;;;6.78;100.00
39739;BME280;25422;48.286;8.484;2023-05-15T04:09:18;93730.44;;;6.80;100.00
39739;BME280;25422;48.286;8.484;2023-05-15T04:11:44;93729.34;;;6.91;100.00
39739;BME280;25422;48.286;8.484;2023-05-15T04:14:11;93728.22;;;6.94;100.00
39739;BME280;25422;48.286;8.484;2023-05-15T04:16:36;93726.25;;;6.96;100.00
39739;BME280;25422;48.286;8.484;2023-05-15T04:19:01;93732.28;;;6.96;100.00
39739;BME280;25422;48.286;8.484;2023-05-15T04:21:27;93725.13;;;6.98;100.00
39739;BME280;25422;48.286;8.484;2023-05-15T04:23:52;93723.19;;;7.00;100.00
39739;BME280;25422;48.286;8.484;2023-05-15T04:26:17;93724.50;;;7.04;100.00
39739;BME280;25422;48.286;8.484;2023-05-15T04:28:43;93724.34;;;7.06;100.00
39739;BME280;25422;48.286;8.484;2023-05-15T04:31:08;93719.94;;;7.06;100.00
39739;BME280;25422;48.286;8.484;2023-05-15T04:33:33;93715.41;;;7.08;100.00
39739;BME280;25422;48.286;8.484;2023-05-15T04:35:59;93722.56;;;7.15;100.00
39739;BME280;25422;48.286;8.484;2023-05-15T04:38:24;93721.25;;;7.19;100.00
39739;BME280;25422;48.286;8.484;2023-05-15T04:40:50;93726.97;;;7.22;100.00
39739;BME280;25422;48.286;8.484;2023-05-15T04:43:15;93726.63;;;7.25;100.00
39739;BME280;25422;48.286;8.484;2023-05-15T04:45:41;93732.19;;;7.31;100.00
39739;BME280;25422;48.286;8.484;2023-05-15T04:48:06;93731.06;;;7.33;100.00
39739;BME280;25422;48.286;8.484;2023-05-15T04:50:31;93728.78;;;7.38;100.00
39739;BME280;25422;48.286;8.484;2023-05-15T04:52:57;93727.31;;;7.44;100.00
39739;BME280;25422;48.286;8.484;2023-05-15T04:55:22;93727.00;;;7.47;100.00
39739;BME280;25422;48.286;8.484;2023-05-15T04:57:48;93727.16;;;7.54;100.00
39739;BME280;25422;48.286;8.484;2023-05-15T05:00:14;93729.59;;;7.47;100.00
39739;BME280;25422;48.286;8.484;2023-05-15T05:02:40;93735.81;;;7.54;100.00
39739;BME280;25422;48.286;8.484;2023-05-15T05:05:07;93738.41;;;7.54;100.00
39739;BME280;25422;48.286;8.484;2023-05-15T05:07:33;93735.81;;;7.54;100.00
39739;BME280;25422;48.286;8.484;2023-05-15T05:09:59;93740.84;;;7.56;100.00
39739;BME280;25422;48.286;8.484;2023-05-15T05:12:24;93741.47;;;7.58;100.00
39739;BME280;25422;48.286;8.484;2023-05-15T05:14:49;93738.88;;;7.66;100.00
39739;BME280;25422;48.286;8.484;2023-05-15T05:17:15;93747.53;;;7.75;100.00
39739;BME280;25422;48.286;8.484;2023-05-15T05:19:40;93738.88;;;7.74;100.00
39739;BME280;25422;48.286;8.484;2023-05-15T05:22:06;93744.13;;;7.83;100.00
39739;BME280;25422;48.286;8.484;2023-05-15T05:24:32;93741.34;;;7.84;100.00
39739;BME280;25422;48.286;8.484;2023-05-15T05:26:59;93748.31;;;7.92;100.00
39739;BME280;25422;48.286;8.484;2023-05-15T05:29:25;93745.88;;;8.07;100.00
39739;BME280;25422;48.286;8.484;2023-05-15T05:31:50;93739.34;;;8.03;100.00
39739;BME280;25422;48.286;8.484;2023-05-15T05:34:17;93741.31;;;8.17;100.00
39739;BME280;25422;48.286;8.484;2023-05-15T05:36:43;93741.94;;;8.27;100.00
39739;BME280;25422;48.286;8.484;2023-05-15T05:39:08;93740.88;;;8.70;100.00
39739;BME280;25422;48.286;8.484;2023-05-15T05:41:33;93738.25;;;9.09;100.00
39739;BME280;25422;48.286;8.484;2023-05-15T05:43:59;93739.84;;;9.19;100.00
39739;BME280;25422;48.286;8.484;2023-05-15T05:46:24;93735.44;;;9.42;100.00
39739;BME280;25422;48.286;8.484;2023-05-15T05:48:51;93732.56;;;9.37;100.00
39739;BME280;25422;48.286;8.484;2023-05-15T05:51:16;93732.56;;;9.37;100.00
39739;BME280;25422;48.286;8.484;2023-05-15T05:53:42;93735.06;;;9.54;100.00
39739;BME280;25422;48.286;8.484;2023-05-15T05:56:07;93735.38;;;9.51;100.00
39739;BME280;25422;48.286;8.484;2023-05-15T05:58:33;93737.72;;;9.69;100.00
39739;BME280;25422;48.286;8.484;2023-05-15T06:00:58;93739.00;;;9.73;100.00
39739;BME280;25422;48.286;8.484;2023-05-15T06:03:25;93726.81;;;9.42;100.00
39739;BME280;25422;48.286;8.484;2023-05-15T06:05:51;93729.41;;;9.42;100.00
39739;BME280;25422;48.286;8.484;2023-05-15T06:08:18;93729.41;;;9.42;100.00
39739;BME280;25422;48.286;8.484;2023-05-15T06:10:43;93739.75;;;9.58;100.00
39739;BME280;25422;48.286;8.484;2023-05-15T06:13:09;93741.84;;;9.63;100.00
39739;BME280;25422;48.286;8.484;2023-05-15T06:15:36;93746.13;;;9.33;100.00
39739;BME280;25422;48.286;8.484;2023-05-15T06:18:01;93745.41;;;9.16;100.00
39739;BME280;25422;48.286;8.484;2023-05-15T06:20:27;93743.72;;;8.91;100.00
39739;BME280;25422;48.286;8.484;2023-05-15T06:22:52;93742.56;;;8.94;100.00
39739;BME280;25422;48.286;8.484;2023-05-15T06:25:17;93747.94;;;9.01;100.00
39739;BME280;25422;48.286;8.484;2023-05-15T06:27:43;93743.66;;;9.08;100.00
39739;BME280;25422;48.286;8.484;2023-05-15T06:30:09;93735.81;;;9.08;100.00
39739;BME280;25422;48.286;8.484;2023-05-15T06:32:34;93731.97;;;9.27;100.00
39739;BME280;25422;48.286;8.484;2023-05-15T06:35:00;93747.00;;;9.48;100.00
39739;BME280;25422;48.286;8.484;2023-05-15T06:37:26;93743.28;;;9.42;100.00
39739;BME280;25422;48.286;8.484;2023-05-15T06:39:53;93748.22;;;9.37;100.00
39739;BME280;25422;48.286;8.484;2023-05-15T06:42:19;93748.56;;;9.57;100.00
39739;BME280;25422;48.286;8.484;2023-05-15T06:44:44;93742.13;;;9.68;100.00
39739;BME280;25422;48.286;8.484;2023-05-15T06:47:11;93736.84;;;9.53;100.00
39739;BME280;25422;48.286;8.484;2023-05-15T06:49:37;93745.03;;;9.73;100.00
39739;BME280;25422;48.286;8.484;2023-05-15T06:52:02;93740.91;;;9.79;100.00
39739;BME280;25422;48.286;8.484;2023-05-15T06:54:28;93743.22;;;9.97;100.00
39739;BME280;25422;48.286;8.484;2023-05-15T06:56:53;93736.50;;;9.79;100.00
39739;BME280;25422;48.286;8.484;2023-05-15T06:59:18;93740.19;;;10.08;100.00
39739;BME280;25422;48.286;8.484;2023-05-15T07:01:44;93738.66;;;10.14;100.00
39739;BME280;25422;48.286;8.484;2023-05-15T07:04:09;93740.31;;;10.30;100.00
39739;BME280;25422;48.286;8.484;2023-05-15T07:06:35;93742.50;;;10.03;100.00
39739;BME280;25422;48.286;8.484;2023-05-15T07:09:01;93741.41;;;9.98;100.00
39739;BME280;25422;48.286;8.484;2023-05-15T07:11:27;93743.41;;;10.10;100.00
39739;BME280;25422;48.286;8.484;2023-05-15T07:13:53;93738.91;;;10.42;100.00
39739;BME280;25422;48.286;8.484;2023-05-15T07:16:19;93748.72;;;10.40;100.00
39739;BME280;25422;48.286;8.484;2023-05-15T07:18:44;93738.72;;;10.74;100.00
39739;BME280;25422;48.286;8.484;2023-05-15T07:21:10;93734.34;;;11.26;100.00
39739;BME280;25422;48.286;8.484;2023-05-15T07:23:35;93742.19;;;11.26;100.00
39739;BME280;25422;48.286;8.484;2023-05-15T07:26:01;93744.81;;;11.26;100.00
39739;BME280;25422;48.286;8.484;2023-05-15T07:28:26;93744.97;;;11.82;100.00
39739;BME280;25422;48.286;8.484;2023-05-15T07:30:51;93754.84;;;11.80;100.00
39739;BME280;25422;48.286;8.484;2023-05-15T07:33:17;93738.16;;;12.10;100.00
39739;BME280;25422;48.286;8.484;2023-05-15T07:35:42;93751.50;;;11.93;100.00
39739;BME280;25422;48.286;8.484;2023-05-15T07:38:08;93751.28;;;12.67;100.00
39739;BME280;25422;48.286;8.484;2023-05-15T07:40:33;93749.09;;;12.70;100.00
39739;BME280;25422;48.286;8.484;2023-05-15T07:42:59;93756.06;;;12.85;100.00
39739;BME280;25422;48.286;8.484;2023-05-15T07:45:24;93750.44;;;13.36;100.00
39739;BME280;25422;48.286;8.484;2023-05-15T07:47:49;93761.19;;;13.48;100.00
39739;BME280;25422;48.286;8.484;2023-05-15T07:50:16;93755.81;;;13.90;100.00
39739;BME280;25422;48.286;8.484;2023-05-15T07:52:42;93760.41;;;13.54;100.00
39739;BME280;25422;48.286;8.484;2023-05-15T07:55:09;93760.81;;;13.09;100.00
39739;BME280;25422;48.286;8.484;2023-05-15T07:57:34;93751.25;;;12.95;100.00
39739;BME280;25422;48.286;8.484;2023-05-15T08:00:00;93754.69;;;13.44;100.00
39739;BME280;25422;48.286;8.484;2023-05-15T08:02:37;93748.63;;;13.37;100.00
39739;BME280;25422;48.286;8.484;2023-05-15T08:05:02;93742.84;;;13.13;100.00
39739;BME280;25422;48.286;8.484;2023-05-15T08:07:30;93749.13;;;12.77;100.00
39739;BME280;25422;48.286;8.484;2023-05-15T08:09:56;93752.47;;;12.64;100.00
39739;BME280;25422;48.286;8.484;2023-05-15T08:12:22;93751.13;;;12.75;100.00
39739;BME280;25422;48.286;8.484;2023-05-15T08:14:55;93756.66;;;12.87;100.00
39739;BME280;25422;48.286;8.484;2023-05-15T08:17:21;93754.09;;;12.65;100.00
39739;BME280;25422;48.286;8.484;2023-05-15T08:19:47;93739.06;;;12.87;100.00
39739;BME280;25422;48.286;8.484;2023-05-15T08:22:12;93750.25;;;12.61;100.00
39739;BME280;25422;48.286;8.484;2023-05-15T08:24:39;93757.97;;;12.69;100.00
39739;BME280;25422;48.286;8.484;2023-05-15T08:27:05;93751.13;;;13.65;100.00
39739;BME280;25422;48.286;8.484;2023-05-15T08:29:32;93744.72;;;14.55;100.00
39739;BME280;25422;48.286;8.484;2023-05-15T08:31:57;93751.91;;;16.98;100.00
39739;BME280;25422;48.286;8.484;2023-05-15T08:34:24;93748.09;;;15.93;100.00
39739;BME280;25422;48.286;8.484;2023-05-15T08:36:49;93738.47;;;16.30;100.00
39739;BME280;25422;48.286;8.484;2023-05-15T08:39:15;93742.78;;;16.50;100.00
39739;BME280;25422;48.286;8.484;2023-05-15T08:41:57;93743.81;;;16.93;100.00
39739;BME280;25422;48.286;8.484;2023-05-15T08:44:24;93738.91;;;16.27;100.00
39739;BME280;25422;48.286;8.484;2023-05-15T08:46:52;93735.47;;;15.17;100.00
39739;BME280;25422;48.286;8.484;2023-05-15T08:52:03;93734.22;;;16.04;100.00
39739;BME280;25422;48.286;8.484;2023-05-15T08:54:29;93731.91;;;16.14;100.00
39739;BME280;25422;48.286;8.484;2023-05-15T08:56:55;93726.28;;;16.36;100.00
39739;BME280;25422;48.286;8.484;2023-05-15T08:59:21;93724.72;;;16.72;100.00
39739;BME280;25422;48.286;8.484;2023-05-15T09:01:46;93720.66;;;17.62;100.00
39739;BME280;25422;48.286;8.484;2023-05-15T09:04:12;93727.97;;;16.93;100.00
39739;BME280;25422;48.286;8.484;2023-05-15T09:06:37;93719.88;;;18.04;100.00
39739;BME280;25422;48.286;8.484;2023-05-15T09:09:04;93716.44;;;17.73;100.00
39739;BME280;25422;48.286;8.484;2023-05-15T09:11:30;93716.25;;;17.26;100.00
39739;BME280;25422;48.286;8.484;2023-05-15T09:13:57;93718.44;;;17.10;100.00
39739;BME280;25422;48.286;8.484;2023-05-15T09:16:23;93703.81;;;18.29;100.00
39739;BME280;25422;48.286;8.484;2023-05-15T09:18:51;93710.38;;;18.27;100.00
39739;BME280;25422;48.286;8.484;2023-05-15T09:21:29;93709.72;;;17.59;100.00
39739;BME280;25422;48.286;8.484;2023-05-15T09:24:21;93710.28;;;18.57;100.00
39739;BME280;25422;48.286;8.484;2023-05-15T09:29:28;93712.44;;;18.25;90.94
39739;BME280;25422;48.286;8.484;2023-05-15T09:31:54;93697.78;;;17.68;97.00
39739;BME280;25422;48.286;8.484;2023-05-15T09:34:28;93693.47;;;18.40;94.35
39739;BME280;25422;48.286;8.484;2023-05-15T09:36:54;93700.44;;;17.68;96.24
39739;BME280;25422;48.286;8.484;2023-05-15T09:39:23;93696.25;;;15.73;100.00
39739;BME280;25422;48.286;8.484;2023-05-15T09:41:49;93704.38;;;14.61;100.00
39739;BME280;25422;48.286;8.484;2023-05-15T09:44:24;93709.09;;;14.32;100.00
39739;BME280;25422;48.286;8.484;2023-05-15T09:46:50;93706.25;;;14.27;100.00
39739;BME280;25422;48.286;8.484;2023-05-15T09:49:16;93713.34;;;14.06;100.00
39739;BME280;25422;48.286;8.484;2023-05-15T09:51:42;93703.84;;;13.78;100.00
39739;BME280;25422;48.286;8.484;2023-05-15T09:54:13;93711.13;;;13.83;100.00
39739;BME280;25422;48.286;8.484;2023-05-15T09:56:43;93712.97;;;13.96;100.00
39739;BME280;25422;48.286;8.484;2023-05-15T09:59:12;93711.03;;;12.88;100.00
39739;BME280;25422;48.286;8.484;2023-05-15T10:01:41;93701.00;;;12.63;100.00
39739;BME280;25422;48.286;8.484;2023-05-15T10:04:07;93701.75;;;12.50;100.00
39739;BME280;25422;48.286;8.484;2023-05-15T10:06:34;93704.59;;;12.55;100.00
39739;BME280;25422;48.286;8.484;2023-05-15T10:09:01;93700.84;;;12.36;100.00
39739;BME280;25422;48.286;8.484;2023-05-15T10:11:29;93708.78;;;12.14;100.00
39739;BME280;25422;48.286;8.484;2023-05-15T10:13:54;93712.13;;;11.87;100.00
39739;BME280;25422;48.286;8.484;2023-05-15T10:16:21;93721.38;;;11.61;100.00
39739;BME280;25422;48.286;8.484;2023-05-15T10:18:50;93732.13;;;10.93;100.00
39739;BME280;25422;48.286;8.484;2023-05-15T10:21:16;93729.75;;;10.23;100.00
39739;BME280;25422;48.286;8.484;2023-05-15T10:23:43;93726.75;;;10.26;100.00
39739;BME280;25422;48.286;8.484;2023-05-15T10:26:48;93722.38;;;10.27;100.00
39739;BME280;25422;48.286;8.484;2023-05-15T10:29:17;93719.84;;;10.19;100.00
39739;BME280;25422;48.286;8.484;2023-05-15T10:31:42;93726.22;;;10.16;100.00
39739;BME280;25422;48.286;8.484;2023-05-15T10:34:09;93721.63;;;10.18;100.00
39739;BME280;25422;48.286;8.484;2023-05-15T10:36:36;93727.84;;;10.17;100.00
39739;BME280;25422;48.286;8.484;2023-05-15T10:39:03;93720.19;;;10.30;100.00
39739;BME280;25422;48.286;8.484;2023-05-15T10:41:32;93731.44;;;10.39;100.00
39739;BME280;25422;48.286;8.484;2023-05-15T10:43:58;93733.78;;;10.49;100.00
39739;BME280;25422;48.286;8.484;2023-05-15T10:46:25;93733.22;;;10.54;100.00
39739;BME280;25422;48.286;8.484;2023-05-15T10:48:51;93748.38;;;10.43;100.00
39739;BME280;25422;48.286;8.484;2023-05-15T10:51:24;93746.88;;;10.26;100.00
39739;BME280;25422;48.286;8.484;2023-05-15T10:53:50;93762.63;;;9.79;100.00
39739;BME280;25422;48.286;8.484;2023-05-15T10:56:16;93763.53;;;8.61;100.00
39739;BME280;25422;48.286;8.484;2023-05-15T10:58:46;93733.97;;;8.21;100.00
39739;BME280;25422;48.286;8.484;2023-05-15T11:01:31;93735.28;;;8.00;100.00
39739;BME280;25422;48.286;8.484;2023-05-15T11:06:36;93732.69;;;8.08;100.00
39739;BME280;25422;48.286;8.484;2023-05-15T11:11:58;93718.63;;;8.26;100.00
39739;BME280;25422;48.286;8.484;2023-05-15T11:14:29;93721.22;;;8.26;100.00
39739;BME280;25422;48.286;8.484;2023-05-15T11:16:56;93718.97;;;8.23;100.00
39739;BME280;25422;48.286;8.484;2023-05-15T11:19:24;93711.75;;;8.41;100.00
39739;BME280;25422;48.286;8.484;2023-05-15T11:21:56;93714.03;;;8.53;100.00
39739;BME280;25422;48.286;8.484;2023-05-15T11:24:45;93708.13;;;8.67;100.00
39739;BME280;25422;48.286;8.484;2023-05-15T11:27:12;93705.56;;;8.90;100.00
39739;BME280;25422;48.286;8.484;2023-05-15T11:30:03;93708.78;;;9.32;100.00
39739;BME280;25422;48.286;8.484;2023-05-15T11:32:54;93699.09;;;9.79;100.00
39739;BME280;25422;48.286;8.484;2023-05-15T11:35:24;93693.69;;;10.19;100.00
39739;BME280;25422;48.286;8.484;2023-05-15T11:37:52;93690.09;;;10.50;100.00
39739;BME280;25422;48.286;8.484;2023-05-15T11:45:28;93685.66;;;11.53;100.00
39739;BME280;25422;48.286;8.484;2023-05-15T11:47:54;93684.31;;;12.07;100.00
39739;BME280;25422;48.286;8.484;2023-05-15T11:50:19;93679.41;;;12.61;100.00
39739;BME280;25422;48.286;8.484;2023-05-15T11:52:45;93683.31;;;12.78;100.00
39739;BME280;25422;48.286;8.484;2023-05-15T11:55:11;93681.34;;;13.42;100.00
39739;BME280;25422;48.286;8.484;2023-05-15T11:57:37;93671.06;;;14.08;100.00
39739;BME280;25422;48.286;8.484;2023-05-15T12:00:03;93669.72;;;14.91;100.00
39739;BME280;25422;48.286;8.484;2023-05-15T12:02:30;93667.09;;;14.91;100.00
39739;BME280;25422;48.286;8.484;2023-05-15T12:04:55;93660.84;;;14.72;100.00
39739;BME280;25422;48.286;8.484;2023-05-15T12:07:21;93665.56;;;15.54;100.00
39739;BME280;25422;48.286;8.484;2023-05-15T12:09:50;93656.63;;;16.12;100.00
39739;BME280;25422;48.286;8.484;2023-05-15T12:12:16;93655.81;;;15.86;100.00
39739;BME280;25422;48.286;8.484;2023-05-15T12:14:42;93664.16;;;16.08;100.00
39739;BME280;25422;48.286;8.484;2023-05-15T12:17:07;93657.72;;;17.03;100.00
39739;BME280;25422;48.286;8.484;2023-05-15T12:19:33;93665.06;;;16.46;100.00
39739;BME280;25422;48.286;8.484;2023-05-15T12:21:59;93660.81;;;16.63;100.00
39739;BME280;25422;48.286;8.484;2023-05-15T12:24:25;93660.09;;;16.93;93.22
39739;BME280;25422;48.286;8.484;2023-05-15T12:26:50;93660.81;;;17.49;86.42
39739;BME280;25422;48.286;8.484;2023-05-15T12:29:16;93660.94;;;17.24;78.50
39739;BME280;25422;48.286;8.484;2023-05-15T12:31:42;93661.97;;;17.53;81.31
39739;BME280;25422;48.286;8.484;2023-05-15T12:34:08;93668.09;;;17.96;70.33
39739;BME280;25422;48.286;8.484;2023-05-15T12:36:33;93667.44;;;17.10;71.50
39739;BME280;25422;48.286;8.484;2023-05-15T12:39:09;93659.94;;;18.22;71.82
39739;BME280;25422;48.286;8.484;2023-05-15T12:41:36;93666.13;;;17.61;73.58
39739;BME280;25422;48.286;8.484;2023-05-15T12:44:02;93661.81;;;17.48;68.80
39739;BME280;25422;48.286;8.484;2023-05-15T12:46:30;93664.53;;;16.56;74.96
39739;BME280;25422;48.286;8.484;2023-05-15T12:49:00;93667.06;;;15.68;87.97
39739;BME280;25422;48.286;8.484;2023-05-15T12:51:26;93659.53;;;15.01;100.00
39739;BME280;25422;48.286;8.484;2023-05-15T12:53:52;93660.66;;;15.18;100.00
39739;BME280;25422;48.286;8.484;2023-05-15T12:56:18;93660.00;;;14.84;100.00
39739;BME280;25422;48.286;8.484;2023-05-15T12:58:43;93669.00;;;14.43;100.00
39739;BME280;25422;48.286;8.484;2023-05-15T13:01:09;93668.22;;;14.09;100.00
39739;BME280;25422;48.286;8.484;2023-05-15T13:03:34;93658.72;;;13.68;100.00
39739;BME280;25422;48.286;8.484;2023-05-15T13:06:01;93671.88;;;13.68;100.00
39739;BME280;25422;48.286;8.484;2023-05-15T13:08:27;93670.47;;;12.97;100.00
39739;BME280;25422;48.286;8.484;2023-05-15T13:10:57;93663.47;;;12.69;100.00
39739;BME280;25422;48.286;8.484;2023-05-15T13:13:23;93658.59;;;12.59;100.00
39739;BME280;25422;48.286;8.484;2023-05-15T13:15:49;93662.22;;;11.95;100.00
39739;BME280;25422;48.286;8.484;2023-05-15T13:18:16;93663.06;;;11.74;100.00
39739;BME280;25422;48.286;8.484;2023-05-15T13:20:47;93662.81;;;11.47;100.00
39739;BME280;25422;48.286;8.484;2023-05-15T13:23:17;93669.69;;;11.26;100.00
39739;BME280;25422;48.286;8.484;2023-05-15T13:25:43;93665.84;;;10.71;100.00
39739;BME280;25422;48.286;8.484;2023-05-15T13:28:10;93673.13;;;10.16;100.00